createdAt,value
2024-05-09T00:00:18.684Z,102489.78
2024-05-09T00:03:13.955Z,102479.38
2024-05-09T00:06:01.707Z,102487.28
2024-05-09T00:08:49.168Z,102484.75
2024-05-09T00:11:36.460Z,102482.41
2024-05-09T00:14:23.874Z,102475.31
2024-05-09T00:17:11.185Z,102487.06
2024-05-09T00:19:58.620Z,102486.28
2024-05-09T00:22:45.936Z,102487.44
2024-05-09T00:25:33.312Z,102480.28
2024-05-09T00:28:20.544Z,102476.97
2024-05-09T00:31:07.826Z,102475.03
2024-05-09T00:33:55.234Z,102472.66
2024-05-09T00:36:42.538Z,102475.19
2024-05-09T00:39:29.853Z,102476.19
2024-05-09T00:42:17.109Z,102467.59
2024-05-09T00:45:06.772Z,102478.31
2024-05-09T00:47:54.528Z,102474.81
2024-05-09T00:50:45.021Z,102466.06
2024-05-09T00:53:34.198Z,102480.44
2024-05-09T00:56:22.484Z,102472.66
2024-05-09T00:59:10.031Z,102477.91
2024-05-09T01:02:00.541Z,102476.94
2024-05-09T01:04:48.095Z,102461.56
2024-05-09T01:07:35.593Z,102451.94
2024-05-09T01:10:28.193Z,102466.44
2024-05-09T01:13:21.401Z,102463.13
2024-05-09T01:16:08.706Z,102458.72
2024-05-09T01:18:56.952Z,102458.25
2024-05-09T01:21:44.362Z,102457.47
2024-05-09T01:24:31.670Z,102454.94
2024-05-09T01:27:19.075Z,102455.13
2024-05-09T01:30:09.593Z,102448.88
2024-05-09T01:33:02.085Z,102448.09
2024-05-09T01:35:49.486Z,102442.81
2024-05-09T01:38:36.849Z,102443.22
2024-05-09T01:41:24.479Z,102431.56
2024-05-09T01:44:11.791Z,102447.78
2024-05-09T01:46:59.184Z,102447.88
2024-05-09T01:49:46.601Z,102451.75
2024-05-09T01:52:38.521Z,102449.19
2024-05-09T01:55:25.846Z,102440.44
2024-05-09T01:58:13.360Z,102443.16
2024-05-09T02:01:02.189Z,102446.16
2024-05-09T02:03:49.932Z,102444.50
2024-05-09T02:06:43.531Z,102430.66
2024-05-09T02:09:30.811Z,102435.72
2024-05-09T02:12:18.148Z,102435.03
2024-05-09T02:15:06.390Z,102434.16
2024-05-09T02:17:54.089Z,102436.97
2024-05-09T02:20:42.905Z,102434.34
2024-05-09T02:23:30.928Z,102434.53
2024-05-09T02:26:18.351Z,102438.91
2024-05-09T02:29:05.764Z,102434.34
2024-05-09T02:31:53.208Z,102433.56
2024-05-09T02:34:40.459Z,102432.53
2024-05-09T02:37:27.760Z,102438.81
2024-05-09T02:40:21.577Z,102430.75
2024-05-09T02:43:13.310Z,102433.47
2024-05-09T02:46:00.740Z,102425.63
2024-05-09T02:48:48.320Z,102441.53
2024-05-09T02:51:35.664Z,102435.16
2024-05-09T02:54:23.001Z,102437.66
2024-05-09T02:57:10.347Z,102443.97
2024-05-09T02:59:57.634Z,102434.94
2024-05-09T03:02:45.092Z,102434.00
2024-05-09T03:05:32.637Z,102432.22
2024-05-09T03:08:19.937Z,102425.25
2024-05-09T03:11:07.260Z,102427.94
2024-05-09T03:13:55.252Z,102430.75
2024-05-09T03:16:42.541Z,102424.53
2024-05-09T03:19:29.896Z,102431.03
2024-05-09T03:22:17.362Z,102434.72
2024-05-09T03:25:05.052Z,102423.44
2024-05-09T03:27:53.549Z,102435.78
2024-05-09T03:30:42.990Z,102433.16
2024-05-09T03:33:30.868Z,102433.16
2024-05-09T03:36:18.306Z,102430.34
2024-05-09T03:39:05.588Z,102426.84
2024-05-09T03:41:52.867Z,102420.88
2024-05-09T03:44:40.383Z,102431.38
2024-05-09T03:47:27.969Z,102427.88
2024-05-09T03:50:22.150Z,102420.72
2024-05-09T03:53:14.840Z,102427.19
2024-05-09T03:56:03.802Z,102422.81
2024-05-09T03:58:51.300Z,102424.56
2024-05-09T04:01:38.699Z,102411.97
2024-05-09T04:04:25.999Z,102415.84
2024-05-09T04:07:13.265Z,102417.72
2024-05-09T04:10:00.570Z,102403.75
2024-05-09T04:12:47.805Z,102418.88
2024-05-09T04:15:35.182Z,102420.66
2024-05-09T04:18:22.577Z,102405.47
2024-05-09T04:21:10.032Z,102418.81
2024-05-09T04:23:57.346Z,102418.88
2024-05-09T04:26:44.556Z,102420.56
2024-05-09T04:29:32.292Z,102418.63
2024-05-09T04:32:19.698Z,102414.06
2024-05-09T04:35:07.178Z,102427.34
2024-05-09T04:37:54.581Z,102416.59
2024-05-09T04:40:42.056Z,102425.94
2024-05-09T04:43:29.303Z,102418.97
2024-05-09T04:46:16.647Z,102425.09
2024-05-09T04:49:04.140Z,102425.41
2024-05-09T04:51:51.496Z,102428.72
2024-05-09T04:54:38.772Z,102438.44
2024-05-09T04:57:26.024Z,102433.69
2024-05-09T05:00:15.001Z,102428.97
2024-05-09T05:03:14.292Z,102426.84
2024-05-09T05:06:03.461Z,102425.69
2024-05-09T05:08:51.302Z,102420.25
2024-05-09T05:11:38.700Z,102430.41
2024-05-09T05:14:26.022Z,102430.13
2024-05-09T05:17:13.333Z,102429.69
2024-05-09T05:20:00.757Z,102435.44
2024-05-09T05:22:48.142Z,102439.44
2024-05-09T05:25:35.414Z,102439.63
2024-05-09T05:28:23.538Z,102444.22
2024-05-09T05:31:11.080Z,102450.63
2024-05-09T05:33:58.493Z,102439.06
2024-05-09T05:36:45.849Z,102439.50
2024-05-09T05:39:33.158Z,102448.81
2024-05-09T05:42:20.517Z,102450.97
2024-05-09T05:45:09.966Z,102459.59
2024-05-09T05:47:57.573Z,102444.81
2024-05-09T05:50:45.419Z,102466.00
2024-05-09T05:53:32.879Z,102460.13
2024-05-09T05:56:20.357Z,102463.22
2024-05-09T05:59:08.367Z,102462.59
2024-05-09T06:01:55.813Z,102461.72
2024-05-09T06:04:43.410Z,102464.81
2024-05-09T06:07:30.760Z,102460.91
2024-05-09T06:10:25.143Z,102458.53
2024-05-09T06:13:14.423Z,102464.31
2024-05-09T06:16:02.489Z,102452.84
2024-05-09T06:18:50.057Z,102459.88
2024-05-09T06:21:37.392Z,102462.75
2024-05-09T06:24:24.699Z,102461.84
2024-05-09T06:27:11.958Z,102458.69
2024-05-09T06:29:59.325Z,102463.78
2024-05-09T06:32:46.796Z,102461.13
2024-05-09T06:35:34.399Z,102465.72
2024-05-09T06:38:21.920Z,102465.56
2024-05-09T06:41:09.393Z,102468.94
2024-05-09T06:43:56.870Z,102458.53
2024-05-09T06:46:45.438Z,102470.28
2024-05-09T06:49:33.112Z,102467.84
2024-05-09T06:52:20.455Z,102464.16
2024-05-09T06:55:07.788Z,102466.91
2024-05-09T06:57:55.095Z,102464.47
2024-05-09T07:00:42.636Z,102472.22
2024-05-09T07:03:30.629Z,102469.56
2024-05-09T07:06:17.984Z,102466.38
2024-05-09T07:09:05.310Z,102465.78
2024-05-09T07:11:52.618Z,102467.38
2024-05-09T07:14:40.121Z,102477.22
2024-05-09T07:17:27.673Z,102468.06
2024-05-09T07:20:22.959Z,102471.47
2024-05-09T07:23:16.131Z,102472.09
2024-05-09T07:26:03.669Z,102463.28
2024-05-09T07:28:51.000Z,102470.28
2024-05-09T07:31:38.407Z,102461.41
2024-05-09T07:34:25.880Z,102473.59
2024-05-09T07:37:14.207Z,102485.19
2024-05-09T07:40:01.693Z,102480.72
2024-05-09T07:42:48.951Z,102486.72
2024-05-09T07:50:00.225Z,102467.81
2024-05-09T07:53:14.063Z,102481.75
2024-05-09T07:54:45.305Z,102489.47
2024-05-09T07:57:32.779Z,102479.16
2024-05-09T08:00:26.833Z,102480.03
2024-05-09T08:03:17.007Z,102477.09
2024-05-09T08:06:04.745Z,102465.19
2024-05-09T08:08:52.073Z,102467.09
2024-05-09T08:11:39.377Z,102463.72
2024-05-09T08:14:27.638Z,102470.63
2024-05-09T08:17:15.065Z,102464.44
2024-05-09T08:20:05.407Z,102471.19
2024-05-09T08:22:52.802Z,102467.22
2024-05-09T08:25:40.195Z,102469.72
2024-05-09T08:28:27.528Z,102455.03
2024-05-09T08:31:15.253Z,102461.63
2024-05-09T08:34:03.290Z,102450.69
2024-05-09T08:36:51.939Z,102453.22
2024-05-09T08:39:39.318Z,102453.50
2024-05-09T08:42:32.164Z,102452.31
2024-05-09T08:45:19.584Z,102447.81
2024-05-09T08:48:08.924Z,102457.38
2024-05-09T08:50:59.494Z,102456.75
2024-05-09T08:53:46.959Z,102453.03
2024-05-09T08:56:35.617Z,102455.97
2024-05-09T08:59:44.431Z,102442.69
2024-05-09T09:02:33.125Z,102453.31
2024-05-09T09:05:28.154Z,102449.66
2024-05-09T09:08:16.504Z,102446.44
2024-05-09T09:11:04.324Z,102445.09
2024-05-09T09:13:51.637Z,102445.47
2024-05-09T09:16:38.936Z,102436.41
2024-05-09T09:19:26.344Z,102439.16
2024-05-09T09:22:15.248Z,102428.25
2024-05-09T09:25:02.637Z,102438.47
2024-05-09T09:27:50.304Z,102419.53
2024-05-09T09:30:42.448Z,102433.84
2024-05-09T09:33:35.609Z,102428.75
2024-05-09T09:36:23.195Z,102434.81
2024-05-09T09:39:14.484Z,102432.25
2024-05-09T09:42:04.602Z,102425.25
2024-05-09T09:45:02.090Z,102420.97
2024-05-09T09:47:57.257Z,102407.63
2024-05-09T09:50:47.364Z,102406.13
2024-05-09T09:53:38.521Z,102401.66
2024-05-09T09:56:28.359Z,102409.28
2024-05-09T09:59:16.759Z,102405.59
2024-05-09T10:02:04.414Z,102405.84
2024-05-09T10:04:52.300Z,102408.88
2024-05-09T10:07:43.705Z,102414.00
2024-05-09T10:10:35.653Z,102404.03
2024-05-09T10:13:33.752Z,102407.72
2024-05-09T10:16:23.251Z,102409.88
2024-05-09T10:19:31.141Z,102411.63
2024-05-09T10:22:28.691Z,102405.25
2024-05-09T10:25:17.034Z,102391.28
2024-05-09T10:28:05.074Z,102396.59
2024-05-09T10:31:14.047Z,102394.97
2024-05-09T10:34:02.698Z,102388.38
2024-05-09T10:36:55.144Z,102393.19
2024-05-09T10:39:42.998Z,102392.69
2024-05-09T10:42:31.021Z,102384.63
2024-05-09T10:45:18.536Z,102373.59
2024-05-09T10:48:07.141Z,102378.75
2024-05-09T10:50:54.953Z,102381.47
2024-05-09T10:53:43.785Z,102371.41
2024-05-09T10:56:31.347Z,102372.66
2024-05-09T10:59:18.593Z,102374.75
2024-05-09T11:02:10.812Z,102377.84
2024-05-09T11:04:58.408Z,102372.19
2024-05-09T11:07:45.895Z,102368.91
2024-05-09T11:10:34.443Z,102367.34
2024-05-09T11:13:32.279Z,102360.97
2024-05-09T11:16:21.626Z,102356.06
2024-05-09T11:19:14.169Z,102366.88
2024-05-09T11:22:02.192Z,102351.19
2024-05-09T11:24:49.778Z,102362.81
2024-05-09T11:27:37.180Z,102356.44
2024-05-09T11:30:30.065Z,102355.06
2024-05-09T11:33:19.882Z,102353.03
2024-05-09T11:36:09.351Z,102347.94
2024-05-09T11:38:56.756Z,102338.66
2024-05-09T11:41:44.030Z,102340.59
2024-05-09T11:44:31.367Z,102327.38
2024-05-09T11:47:18.842Z,102336.00
2024-05-09T11:50:08.234Z,102327.97
2024-05-09T11:52:57.587Z,102325.88
2024-05-09T11:55:44.963Z,102331.81
2024-05-09T11:58:34.740Z,102333.75
2024-05-09T12:01:25.111Z,102323.38
2024-05-09T12:04:13.754Z,102310.00
2024-05-09T12:07:01.402Z,102323.47
2024-05-09T12:09:48.742Z,102315.41
2024-05-09T12:12:37.526Z,102301.88
2024-05-09T12:15:24.951Z,102309.28
2024-05-09T12:18:12.321Z,102307.47
2024-05-09T12:21:03.105Z,102295.31
2024-05-09T12:23:50.685Z,102299.75
2024-05-09T12:26:38.082Z,102284.84
2024-05-09T12:29:26.405Z,102285.38
2024-05-09T12:32:13.795Z,102287.03
2024-05-09T12:35:01.053Z,102278.19
2024-05-09T12:37:48.444Z,102283.19
2024-05-09T12:40:38.408Z,102280.59
2024-05-09T12:43:26.792Z,102269.59
2024-05-09T12:46:14.396Z,102276.00
2024-05-09T12:49:01.906Z,102273.78
2024-05-09T12:51:49.377Z,102262.84
2024-05-09T12:54:37.402Z,102267.78
2024-05-09T12:57:25.856Z,102256.56
2024-05-09T13:00:23.262Z,102268.63
2024-05-09T13:03:15.467Z,102255.22
2024-05-09T13:06:02.970Z,102263.84
2024-05-09T13:08:50.413Z,102257.25
2024-05-09T13:11:38.107Z,102251.97
2024-05-09T13:14:25.603Z,102266.34
2024-05-09T13:17:13.024Z,102255.75
2024-05-09T13:20:00.431Z,102248.13
2024-05-09T13:22:48.704Z,102250.47
2024-05-09T13:25:39.099Z,102248.56
2024-05-09T13:28:26.857Z,102251.47
2024-05-09T13:31:15.212Z,102247.94
2024-05-09T13:34:02.691Z,102250.78
2024-05-09T13:36:50.376Z,102250.28
2024-05-09T13:39:37.789Z,102242.06
2024-05-09T13:42:25.157Z,102239.34
2024-05-09T13:45:12.783Z,102244.03
2024-05-09T13:48:00.928Z,102241.91
2024-05-09T13:50:48.598Z,102240.94
2024-05-09T13:53:35.955Z,102239.13
2024-05-09T13:56:23.390Z,102239.31
2024-05-09T13:59:10.996Z,102240.72
2024-05-09T14:01:58.699Z,102235.28
2024-05-09T14:04:46.167Z,102233.97
2024-05-09T14:07:33.625Z,102237.34
2024-05-09T14:10:26.210Z,102236.94
2024-05-09T14:13:18.631Z,102232.84
2024-05-09T14:16:06.857Z,102227.91
2024-05-09T14:18:54.287Z,102229.13
2024-05-09T14:21:41.644Z,102227.47
2024-05-09T14:24:28.948Z,102230.97
2024-05-09T14:27:16.421Z,102227.53
2024-05-09T14:30:07.327Z,102224.28
2024-05-09T14:32:56.904Z,102229.25
2024-05-09T14:35:44.447Z,102210.75
2024-05-09T14:38:31.943Z,102209.56
2024-05-09T14:41:19.699Z,102212.34
2024-05-09T14:44:07.554Z,102206.81
2024-05-09T14:46:54.959Z,102213.72
2024-05-09T14:49:42.588Z,102203.66
2024-05-09T14:52:29.920Z,102205.22
2024-05-09T14:55:17.314Z,102206.78
2024-05-09T14:58:07.376Z,102199.72
2024-05-09T15:00:55.109Z,102200.41
2024-05-09T15:03:42.700Z,102197.81
2024-05-09T15:06:30.329Z,102190.72
2024-05-09T15:09:17.839Z,102194.53
2024-05-09T15:12:05.537Z,102200.94
2024-05-09T15:14:52.880Z,102184.50
2024-05-09T15:17:40.837Z,102173.47
2024-05-09T15:20:34.563Z,102184.50
2024-05-09T15:23:24.153Z,102178.97
2024-05-09T15:26:11.855Z,102178.47
2024-05-09T15:28:59.362Z,102174.66
2024-05-09T15:31:46.635Z,102180.88
2024-05-09T15:34:34.067Z,102168.06
2024-05-09T15:37:22.549Z,102165.13
2024-05-09T15:40:15.338Z,102167.38
2024-05-09T15:43:11.255Z,102172.88
2024-05-09T15:45:59.398Z,102167.31
2024-05-09T15:48:47.184Z,102163.13
2024-05-09T15:51:34.981Z,102162.53
2024-05-09T15:54:23.688Z,102155.25
2024-05-09T15:57:12.900Z,102157.31
2024-05-09T16:00:00.379Z,102166.09
2024-05-09T16:02:47.891Z,102157.31
2024-05-09T16:05:35.563Z,102156.06
2024-05-09T16:08:23.495Z,102150.88
2024-05-09T16:11:10.921Z,102149.59
2024-05-09T16:13:58.323Z,102138.56
2024-05-09T16:16:46.143Z,102140.00
2024-05-09T16:19:33.733Z,102144.16
2024-05-09T16:22:21.043Z,102135.53
2024-05-09T16:25:08.387Z,102145.88
2024-05-09T16:27:55.802Z,102139.31
2024-05-09T16:30:43.301Z,102146.94
2024-05-09T16:33:31.223Z,102142.81
2024-05-09T16:36:18.764Z,102128.63
2024-05-09T16:39:06.064Z,102136.41
2024-05-09T16:41:53.340Z,102133.13
2024-05-09T16:44:40.646Z,102130.56
2024-05-09T16:47:28.331Z,102124.84
2024-05-09T16:50:19.266Z,102127.78
2024-05-09T16:53:09.626Z,102131.09
2024-05-09T16:55:56.976Z,102124.53
2024-05-09T16:58:44.290Z,102131.44
2024-05-09T17:01:31.742Z,102125.56
2024-05-09T17:04:19.442Z,102127.31
2024-05-09T17:07:06.969Z,102125.91
2024-05-09T17:09:54.611Z,102117.25
2024-05-09T17:12:43.470Z,102118.25
2024-05-09T17:15:31.096Z,102111.69
2024-05-09T17:18:18.728Z,102114.47
2024-05-09T17:21:06.313Z,102110.13
2024-05-09T17:23:55.660Z,102113.72
2024-05-09T17:26:42.979Z,102113.38
2024-05-09T17:29:30.694Z,102108.19
2024-05-09T17:32:18.095Z,102106.41
2024-05-09T17:35:06.173Z,102107.06
2024-05-09T17:37:53.709Z,102112.56
2024-05-09T17:40:41.218Z,102111.88
2024-05-09T17:43:28.900Z,102100.97
2024-05-09T17:46:16.460Z,102100.38
2024-05-09T17:49:04.402Z,102105.38
2024-05-09T17:51:55.554Z,102094.47
2024-05-09T17:54:42.872Z,102102.75
2024-05-09T17:57:30.305Z,102102.22
2024-05-09T18:00:28.542Z,102110.97
2024-05-09T18:03:24.134Z,102108.91
2024-05-09T18:06:11.481Z,102103.72
2024-05-09T18:08:58.681Z,102100.91
2024-05-09T18:11:46.266Z,102106.69
2024-05-09T18:14:33.616Z,102101.16
2024-05-09T18:17:23.635Z,102089.34
2024-05-09T18:20:19.694Z,102095.69
2024-05-09T18:23:18.003Z,102090.69
2024-05-09T18:26:06.221Z,102099.56
2024-05-09T18:28:53.573Z,102095.72
2024-05-09T18:31:40.861Z,102095.53
2024-05-09T18:34:28.282Z,102094.97
2024-05-09T18:37:15.740Z,102095.59
2024-05-09T18:40:03.403Z,102103.66
2024-05-09T18:42:51.793Z,102097.91
2024-05-09T18:45:39.783Z,102106.06
2024-05-09T18:48:27.351Z,102096.94
2024-05-09T18:51:14.807Z,102110.00
2024-05-09T18:54:02.152Z,102101.34
2024-05-09T18:56:49.503Z,102098.97
2024-05-09T18:59:36.930Z,102103.59
2024-05-09T19:02:24.388Z,102108.38
2024-05-09T19:05:11.987Z,102098.63
2024-05-09T19:07:59.662Z,102110.50
2024-05-09T19:10:47.170Z,102113.00
2024-05-09T19:13:34.605Z,102116.38
2024-05-09T19:16:22.199Z,102116.06
2024-05-09T19:19:10.082Z,102121.34
2024-05-09T19:21:58.203Z,102111.38
2024-05-09T19:24:45.576Z,102120.50
2024-05-09T19:27:32.954Z,102108.66
2024-05-09T19:30:29.783Z,102116.19
2024-05-09T19:33:26.127Z,102121.44
2024-05-09T19:36:13.634Z,102108.75
2024-05-09T19:39:00.993Z,102115.25
2024-05-09T19:41:48.403Z,102110.22
2024-05-09T19:44:35.704Z,102113.69
2024-05-09T19:47:23.248Z,102112.25
2024-05-09T19:50:13.896Z,102113.56
2024-05-09T19:53:04.028Z,102117.78
2024-05-09T19:55:51.419Z,102119.81
2024-05-09T19:58:38.745Z,102119.50
2024-05-09T20:01:26.156Z,102129.03
2024-05-09T20:04:13.838Z,102127.91
2024-05-09T20:07:01.254Z,102110.53
2024-05-09T20:09:48.589Z,102113.44
2024-05-09T20:12:36.059Z,102109.38
2024-05-09T20:15:23.382Z,102113.00
2024-05-09T20:18:11.440Z,102120.09
2024-05-09T20:21:00.103Z,102114.59
2024-05-09T20:23:47.544Z,102109.81
2024-05-09T20:26:34.807Z,102114.88
2024-05-09T20:29:22.461Z,102123.81
2024-05-09T20:32:09.767Z,102122.03
2024-05-09T20:34:57.000Z,102122.75
2024-05-09T20:37:44.227Z,102122.28
2024-05-09T20:40:36.924Z,102113.75
2024-05-09T20:43:26.586Z,102120.53
2024-05-09T20:46:17.274Z,102122.34
2024-05-09T20:49:04.800Z,102127.09
2024-05-09T20:51:52.214Z,102129.13
2024-05-09T20:54:39.528Z,102125.66
2024-05-09T20:57:26.838Z,102129.44
2024-05-09T21:00:18.847Z,102134.91
2024-05-09T21:03:10.505Z,102127.41
2024-05-09T21:05:58.721Z,102126.84
2024-05-09T21:08:45.989Z,102126.56
2024-05-09T21:11:33.297Z,102133.38
2024-05-09T21:14:20.613Z,102142.19
2024-05-09T21:17:08.056Z,102135.41
2024-05-09T21:19:55.362Z,102138.75
2024-05-09T21:22:44.255Z,102137.59
2024-05-09T21:25:32.283Z,102132.09
2024-05-09T21:28:19.881Z,102125.44
2024-05-09T21:31:08.876Z,102139.59
2024-05-09T21:33:56.283Z,102139.47
2024-05-09T21:36:43.748Z,102139.34
2024-05-09T21:39:31.188Z,102138.75
2024-05-09T21:42:18.434Z,102142.22
2024-05-09T21:45:06.443Z,102135.00
2024-05-09T21:47:53.817Z,102127.91
2024-05-09T21:50:42.583Z,102133.13
2024-05-09T21:53:30.163Z,102135.00
2024-05-09T21:56:17.394Z,102137.91
2024-05-09T21:59:04.791Z,102128.94
2024-05-09T22:01:52.093Z,102124.00
2024-05-09T22:04:40.080Z,102130.91
2024-05-09T22:07:27.450Z,102130.06
2024-05-09T22:10:22.775Z,102127.75
2024-05-09T22:13:16.157Z,102136.00
2024-05-09T22:16:04.572Z,102131.75
2024-05-09T22:18:52.220Z,102128.13
2024-05-09T22:21:39.589Z,102128.84
2024-05-09T22:24:26.906Z,102127.41
2024-05-09T22:27:14.170Z,102121.47
2024-05-09T22:30:01.456Z,102131.72
2024-05-09T22:32:48.840Z,102120.28
2024-05-09T22:35:36.143Z,102123.28
2024-05-09T22:38:23.338Z,102123.59
2024-05-09T22:41:10.662Z,102121.81
2024-05-09T22:43:58.630Z,102135.53
2024-05-09T22:46:45.957Z,102132.19
2024-05-09T22:49:33.370Z,102135.81
2024-05-09T22:52:20.696Z,102128.00
2024-05-09T22:55:08.474Z,102132.19
2024-05-09T22:57:56.331Z,102135.97
2024-05-09T23:00:43.857Z,102125.13
2024-05-09T23:03:33.072Z,102128.13
2024-05-09T23:06:20.506Z,102120.31
2024-05-09T23:09:09.779Z,102121.47
2024-05-09T23:11:57.266Z,102126.09
2024-05-09T23:14:45.324Z,102113.06
2024-05-09T23:17:32.742Z,102123.00
2024-05-09T23:20:29.909Z,102118.53
2024-05-09T23:23:24.031Z,102104.59
2024-05-09T23:26:11.396Z,102119.03
2024-05-09T23:28:59.238Z,102111.50
2024-05-09T23:31:46.667Z,102113.06
2024-05-09T23:34:33.944Z,102111.50
2024-05-09T23:37:21.356Z,102111.50
2024-05-09T23:40:15.111Z,102115.81
2024-05-09T23:43:05.902Z,102114.22
2024-05-09T23:45:53.230Z,102114.09
2024-05-09T23:48:40.618Z,102105.16
2024-05-09T23:51:27.935Z,102106.13
2024-05-09T23:54:15.200Z,102104.81
2024-05-09T23:57:02.524Z,102101.47
2024-05-09T23:59:49.861Z,102108.22
